sensor_id;sensor_type;location;lat;lon;timestamp;P1;durP1;ratioP1;P2;durP2;ratioP2
21675;SDS011;10999;51.332;9.458;2024-03-06T00:00:03;19.38;;;6.88;;
21675;SDS011;10999;51.332;9.458;2024-03-06T00:02:31;19.05;;;7.78;;
21675;SDS011;10999;51.332;9.458;2024-03-06T00:04:58;17.95;;;8.30;;
21675;SDS011;10999;51.332;9.458;2024-03-06T00:07:25;23.42;;;8.95;;
21675;SDS011;10999;51.332;9.458;2024-03-06T00:09:52;18.77;;;7.32;;
21675;SDS011;10999;51.332;9.458;2024-03-06T00:12:19;20.42;;;8.02;;
21675;SDS011;10999;51.332;9.458;2024-03-06T00:14:49;20.05;;;8.38;;
21675;SDS011;10999;51.332;9.458;2024-03-06T00:17:18;20.05;;;7.88;;
21675;SDS011;10999;51.332;9.458;2024-03-06T00:19:45;18.00;;;8.50;;
21675;SDS011;10999;51.332;9.458;2024-03-06T00:22:12;21.98;;;9.15;;
21675;SDS011;10999;51.332;9.458;2024-03-06T00:24:38;20.23;;;7.57;;
21675;SDS011;10999;51.332;9.458;2024-03-06T00:27:05;17.33;;;6.97;;
21675;SDS011;10999;51.332;9.458;2024-03-06T00:29:32;19.38;;;7.97;;
21675;SDS011;10999;51.332;9.458;2024-03-06T00:31:59;21.02;;;8.13;;
21675;SDS011;10999;51.332;9.458;2024-03-06T00:34:25;20.92;;;8.55;;
21675;SDS011;10999;51.332;9.458;2024-03-06T00:36:53;19.73;;;8.07;;
21675;SDS011;10999;51.332;9.458;2024-03-06T00:39:20;19.45;;;7.72;;
21675;SDS011;10999;51.332;9.458;2024-03-06T00:41:47;18.65;;;7.75;;
21675;SDS011;10999;51.332;9.458;2024-03-06T00:44:15;20.02;;;7.68;;
21675;SDS011;10999;51.332;9.458;2024-03-06T00:46:42;18.58;;;7.70;;
21675;SDS011;10999;51.332;9.458;2024-03-06T00:49:09;20.20;;;8.10;;
21675;SDS011;10999;51.332;9.458;2024-03-06T00:51:36;19.05;;;6.97;;
21675;SDS011;10999;51.332;9.458;2024-03-06T00:54:13;19.90;;;8.50;;
21675;SDS011;10999;51.332;9.458;2024-03-06T00:56:40;21.73;;;7.57;;
21675;SDS011;10999;51.332;9.458;2024-03-06T00:59:07;20.08;;;7.22;;
21675;SDS011;10999;51.332;9.458;2024-03-06T01:01:34;19.25;;;7.90;;
21675;SDS011;10999;51.332;9.458;2024-03-06T01:04:01;21.90;;;8.20;;
21675;SDS011;10999;51.332;9.458;2024-03-06T01:06:28;24.30;;;8.75;;
21675;SDS011;10999;51.332;9.458;2024-03-06T01:08:55;23.50;;;9.68;;
21675;SDS011;10999;51.332;9.458;2024-03-06T01:11:23;18.95;;;8.32;;
21675;SDS011;10999;51.332;9.458;2024-03-06T01:13:51;22.98;;;9.85;;
21675;SDS011;10999;51.332;9.458;2024-03-06T01:16:18;25.45;;;9.40;;
21675;SDS011;10999;51.332;9.458;2024-03-06T01:18:45;25.30;;;10.50;;
21675;SDS011;10999;51.332;9.458;2024-03-06T01:21:12;21.75;;;8.48;;
21675;SDS011;10999;51.332;9.458;2024-03-06T01:23:39;22.90;;;8.60;;
21675;SDS011;10999;51.332;9.458;2024-03-06T01:26:06;24.17;;;10.63;;
21675;SDS011;10999;51.332;9.458;2024-03-06T01:28:33;19.52;;;8.50;;
21675;SDS011;10999;51.332;9.458;2024-03-06T01:31:00;21.85;;;8.90;;
21675;SDS011;10999;51.332;9.458;2024-03-06T01:33:27;24.92;;;9.88;;
21675;SDS011;10999;51.332;9.458;2024-03-06T01:35:54;19.52;;;9.50;;
21675;SDS011;10999;51.332;9.458;2024-03-06T01:38:20;22.27;;;9.75;;
21675;SDS011;10999;51.332;9.458;2024-03-06T01:40:48;25.05;;;9.48;;
21675;SDS011;10999;51.332;9.458;2024-03-06T01:43:21;23.25;;;9.85;;
21675;SDS011;10999;51.332;9.458;2024-03-06T01:45:49;23.05;;;9.52;;
21675;SDS011;10999;51.332;9.458;2024-03-06T01:48:16;25.30;;;9.52;;
21675;SDS011;10999;51.332;9.458;2024-03-06T01:50:45;24.55;;;9.57;;
21675;SDS011;10999;51.332;9.458;2024-03-06T01:53:12;24.00;;;10.00;;
21675;SDS011;10999;51.332;9.458;2024-03-06T01:55:42;21.02;;;8.00;;
21675;SDS011;10999;51.332;9.458;2024-03-06T01:58:09;24.67;;;9.40;;
21675;SDS011;10999;51.332;9.458;2024-03-06T02:00:36;25.92;;;10.60;;
21675;SDS011;10999;51.332;9.458;2024-03-06T02:03:03;22.20;;;9.82;;
21675;SDS011;10999;51.332;9.458;2024-03-06T02:05:31;21.33;;;8.85;;
21675;SDS011;10999;51.332;9.458;2024-03-06T02:07:59;23.60;;;9.38;;
21675;SDS011;10999;51.332;9.458;2024-03-06T02:10:26;25.77;;;9.52;;
21675;SDS011;10999;51.332;9.458;2024-03-06T02:12:54;23.77;;;10.07;;
21675;SDS011;10999;51.332;9.458;2024-03-06T02:15:21;24.00;;;9.93;;
21675;SDS011;10999;51.332;9.458;2024-03-06T02:17:48;23.55;;;9.50;;
21675;SDS011;10999;51.332;9.458;2024-03-06T02:20:15;22.00;;;8.77;;
21675;SDS011;10999;51.332;9.458;2024-03-06T02:22:42;25.60;;;9.88;;
21675;SDS011;10999;51.332;9.458;2024-03-06T02:25:09;26.58;;;8.93;;
21675;SDS011;10999;51.332;9.458;2024-03-06T02:27:37;26.85;;;9.27;;
21675;SDS011;10999;51.332;9.458;2024-03-06T02:30:04;26.48;;;10.15;;
21675;SDS011;10999;51.332;9.458;2024-03-06T02:32:31;22.30;;;9.48;;
21675;SDS011;10999;51.332;9.458;2024-03-06T02:34:58;21.65;;;9.93;;
21675;SDS011;10999;51.332;9.458;2024-03-06T02:37:27;24.58;;;9.30;;
21675;SDS011;10999;51.332;9.458;2024-03-06T02:39:54;27.40;;;10.45;;
21675;SDS011;10999;51.332;9.458;2024-03-06T02:42:21;20.63;;;9.30;;
21675;SDS011;10999;51.332;9.458;2024-03-06T02:44:47;25.73;;;10.23;;
21675;SDS011;10999;51.332;9.458;2024-03-06T02:47:14;24.95;;;8.98;;
21675;SDS011;10999;51.332;9.458;2024-03-06T02:49:41;27.75;;;9.93;;
21675;SDS011;10999;51.332;9.458;2024-03-06T02:52:08;24.20;;;10.30;;
21675;SDS011;10999;51.332;9.458;2024-03-06T02:54:34;22.10;;;9.18;;
21675;SDS011;10999;51.332;9.458;2024-03-06T02:57:01;32.65;;;11.40;;
21675;SDS011;10999;51.332;9.458;2024-03-06T02:59:28;27.95;;;10.55;;
21675;SDS011;10999;51.332;9.458;2024-03-06T03:01:54;24.88;;;9.90;;
21675;SDS011;10999;51.332;9.458;2024-03-06T03:04:21;24.15;;;9.75;;
21675;SDS011;10999;51.332;9.458;2024-03-06T03:06:48;25.88;;;10.48;;
21675;SDS011;10999;51.332;9.458;2024-03-06T03:09:15;29.38;;;10.73;;
21675;SDS011;10999;51.332;9.458;2024-03-06T03:11:42;27.88;;;9.88;;
21675;SDS011;10999;51.332;9.458;2024-03-06T03:14:10;23.85;;;10.52;;
21675;SDS011;10999;51.332;9.458;2024-03-06T03:16:37;23.48;;;10.40;;
21675;SDS011;10999;51.332;9.458;2024-03-06T03:19:04;24.85;;;10.63;;
21675;SDS011;10999;51.332;9.458;2024-03-06T03:21:31;24.88;;;10.20;;
21675;SDS011;10999;51.332;9.458;2024-03-06T03:23:58;26.17;;;10.40;;
21675;SDS011;10999;51.332;9.458;2024-03-06T03:26:25;27.05;;;9.90;;
21675;SDS011;10999;51.332;9.458;2024-03-06T03:28:51;26.13;;;10.45;;
21675;SDS011;10999;51.332;9.458;2024-03-06T03:31:18;27.52;;;10.98;;
21675;SDS011;10999;51.332;9.458;2024-03-06T03:33:45;24.75;;;10.25;;
21675;SDS011;10999;51.332;9.458;2024-03-06T03:36:12;24.10;;;9.30;;
21675;SDS011;10999;51.332;9.458;2024-03-06T03:38:38;26.23;;;10.27;;
21675;SDS011;10999;51.332;9.458;2024-03-06T03:41:09;25.40;;;9.43;;
21675;SDS011;10999;51.332;9.458;2024-03-06T03:43:39;27.75;;;10.38;;
21675;SDS011;10999;51.332;9.458;2024-03-06T03:46:07;27.05;;;10.20;;
21675;SDS011;10999;51.332;9.458;2024-03-06T03:48:34;28.67;;;11.57;;
21675;SDS011;10999;51.332;9.458;2024-03-06T03:51:02;26.20;;;9.77;;
21675;SDS011;10999;51.332;9.458;2024-03-06T03:53:33;26.08;;;10.43;;
21675;SDS011;10999;51.332;9.458;2024-03-06T03:56:00;27.65;;;11.32;;
21675;SDS011;10999;51.332;9.458;2024-03-06T03:58:27;26.52;;;9.98;;
21675;SDS011;10999;51.332;9.458;2024-03-06T04:00:54;31.35;;;14.18;;
21675;SDS011;10999;51.332;9.458;2024-03-06T04:03:22;27.65;;;10.85;;
21675;SDS011;10999;51.332;9.458;2024-03-06T04:05:50;27.38;;;11.05;;
21675;SDS011;10999;51.332;9.458;2024-03-06T04:08:17;27.85;;;10.40;;
21675;SDS011;10999;51.332;9.458;2024-03-06T04:10:44;25.77;;;11.38;;
21675;SDS011;10999;51.332;9.458;2024-03-06T04:13:12;29.13;;;11.73;;
21675;SDS011;10999;51.332;9.458;2024-03-06T04:15:39;30.02;;;10.85;;
21675;SDS011;10999;51.332;9.458;2024-03-06T04:18:06;32.85;;;12.40;;
21675;SDS011;10999;51.332;9.458;2024-03-06T04:20:33;29.95;;;11.32;;
21675;SDS011;10999;51.332;9.458;2024-03-06T04:23:00;27.52;;;11.25;;
21675;SDS011;10999;51.332;9.458;2024-03-06T04:25:26;25.65;;;11.23;;
21675;SDS011;10999;51.332;9.458;2024-03-06T04:27:53;30.35;;;11.52;;
21675;SDS011;10999;51.332;9.458;2024-03-06T04:30:20;28.77;;;12.02;;
21675;SDS011;10999;51.332;9.458;2024-03-06T04:32:47;26.55;;;11.80;;
21675;SDS011;10999;51.332;9.458;2024-03-06T04:35:14;31.75;;;12.27;;
21675;SDS011;10999;51.332;9.458;2024-03-06T04:37:41;28.42;;;12.45;;
21675;SDS011;10999;51.332;9.458;2024-03-06T04:40:10;29.20;;;12.10;;
21675;SDS011;10999;51.332;9.458;2024-03-06T04:42:37;27.10;;;11.50;;
21675;SDS011;10999;51.332;9.458;2024-03-06T04:45:04;27.42;;;12.13;;
21675;SDS011;10999;51.332;9.458;2024-03-06T04:47:38;26.30;;;11.48;;
21675;SDS011;10999;51.332;9.458;2024-03-06T04:50:09;34.60;;;13.73;;
21675;SDS011;10999;51.332;9.458;2024-03-06T04:52:37;29.70;;;12.07;;
21675;SDS011;10999;51.332;9.458;2024-03-06T04:55:05;32.92;;;13.38;;
21675;SDS011;10999;51.332;9.458;2024-03-06T04:57:32;29.38;;;12.20;;
21675;SDS011;10999;51.332;9.458;2024-03-06T05:00:00;28.85;;;11.82;;
21675;SDS011;10999;51.332;9.458;2024-03-06T05:02:32;32.97;;;13.77;;
21675;SDS011;10999;51.332;9.458;2024-03-06T05:05:17;32.95;;;12.25;;
21675;SDS011;10999;51.332;9.458;2024-03-06T05:08:02;34.65;;;12.55;;
21675;SDS011;10999;51.332;9.458;2024-03-06T05:10:46;34.05;;;12.10;;
21675;SDS011;10999;51.332;9.458;2024-03-06T05:13:30;31.38;;;12.57;;
21675;SDS011;10999;51.332;9.458;2024-03-06T05:16:15;34.22;;;12.95;;
21675;SDS011;10999;51.332;9.458;2024-03-06T05:18:59;34.30;;;13.60;;
21675;SDS011;10999;51.332;9.458;2024-03-06T05:21:43;31.90;;;13.20;;
21675;SDS011;10999;51.332;9.458;2024-03-06T05:24:27;31.73;;;13.52;;
21675;SDS011;10999;51.332;9.458;2024-03-06T05:27:11;33.65;;;13.75;;
21675;SDS011;10999;51.332;9.458;2024-03-06T05:29:59;34.78;;;12.90;;
21675;SDS011;10999;51.332;9.458;2024-03-06T05:32:43;33.67;;;13.90;;
21675;SDS011;10999;51.332;9.458;2024-03-06T05:35:28;34.35;;;12.90;;
21675;SDS011;10999;51.332;9.458;2024-03-06T05:38:13;31.67;;;12.40;;
21675;SDS011;10999;51.332;9.458;2024-03-06T05:40:57;32.47;;;14.20;;
21675;SDS011;10999;51.332;9.458;2024-03-06T05:43:41;36.58;;;13.32;;
21675;SDS011;10999;51.332;9.458;2024-03-06T05:46:25;39.05;;;14.43;;
21675;SDS011;10999;51.332;9.458;2024-03-06T05:49:09;38.67;;;15.45;;
21675;SDS011;10999;51.332;9.458;2024-03-06T05:51:54;36.58;;;13.95;;
21675;SDS011;10999;51.332;9.458;2024-03-06T05:54:38;34.95;;;15.07;;
21675;SDS011;10999;51.332;9.458;2024-03-06T05:57:22;37.33;;;14.15;;
21675;SDS011;10999;51.332;9.458;2024-03-06T06:00:06;34.53;;;12.13;;
21675;SDS011;10999;51.332;9.458;2024-03-06T06:02:37;31.90;;;12.95;;
21675;SDS011;10999;51.332;9.458;2024-03-06T06:05:05;38.70;;;13.40;;
21675;SDS011;10999;51.332;9.458;2024-03-06T06:07:49;37.97;;;14.05;;
21675;SDS011;10999;51.332;9.458;2024-03-06T06:10:16;39.28;;;14.35;;
21675;SDS011;10999;51.332;9.458;2024-03-06T06:12:47;37.97;;;13.75;;
21675;SDS011;10999;51.332;9.458;2024-03-06T06:15:14;38.28;;;14.65;;
21675;SDS011;10999;51.332;9.458;2024-03-06T06:17:41;39.55;;;15.38;;
21675;SDS011;10999;51.332;9.458;2024-03-06T06:20:11;33.58;;;14.30;;
21675;SDS011;10999;51.332;9.458;2024-03-06T06:22:42;40.88;;;15.45;;
21675;SDS011;10999;51.332;9.458;2024-03-06T06:25:09;40.38;;;13.38;;
21675;SDS011;10999;51.332;9.458;2024-03-06T06:27:36;39.63;;;15.30;;
21675;SDS011;10999;51.332;9.458;2024-03-06T06:30:04;39.55;;;13.88;;
21675;SDS011;10999;51.332;9.458;2024-03-06T06:32:33;35.05;;;15.32;;
21675;SDS011;10999;51.332;9.458;2024-03-06T06:35:00;41.90;;;13.43;;
21675;SDS011;10999;51.332;9.458;2024-03-06T06:37:27;35.65;;;14.27;;
21675;SDS011;10999;51.332;9.458;2024-03-06T06:39:54;36.92;;;14.07;;
21675;SDS011;10999;51.332;9.458;2024-03-06T06:42:20;41.08;;;14.63;;
21675;SDS011;10999;51.332;9.458;2024-03-06T06:44:47;36.55;;;12.90;;
21675;SDS011;10999;51.332;9.458;2024-03-06T06:47:14;40.90;;;14.85;;
21675;SDS011;10999;51.332;9.458;2024-03-06T06:49:40;38.33;;;14.55;;
21675;SDS011;10999;51.332;9.458;2024-03-06T06:52:07;37.90;;;14.38;;
21675;SDS011;10999;51.332;9.458;2024-03-06T06:54:34;33.85;;;14.35;;
21675;SDS011;10999;51.332;9.458;2024-03-06T06:57:01;43.20;;;14.43;;
21675;SDS011;10999;51.332;9.458;2024-03-06T06:59:29;40.58;;;16.35;;
21675;SDS011;10999;51.332;9.458;2024-03-06T07:01:56;38.47;;;14.10;;
21675;SDS011;10999;51.332;9.458;2024-03-06T07:04:23;34.00;;;14.40;;
21675;SDS011;10999;51.332;9.458;2024-03-06T07:06:50;37.72;;;14.25;;
21675;SDS011;10999;51.332;9.458;2024-03-06T07:09:17;33.40;;;12.95;;
21675;SDS011;10999;51.332;9.458;2024-03-06T07:11:45;39.10;;;14.95;;
21675;SDS011;10999;51.332;9.458;2024-03-06T07:14:12;37.65;;;14.50;;
21675;SDS011;10999;51.332;9.458;2024-03-06T07:16:43;34.97;;;14.07;;
21675;SDS011;10999;51.332;9.458;2024-03-06T07:19:10;39.00;;;14.95;;
21675;SDS011;10999;51.332;9.458;2024-03-06T07:21:37;39.47;;;14.63;;
21675;SDS011;10999;51.332;9.458;2024-03-06T07:24:04;38.35;;;15.00;;
21675;SDS011;10999;51.332;9.458;2024-03-06T07:26:32;41.13;;;15.95;;
21675;SDS011;10999;51.332;9.458;2024-03-06T07:29:00;41.40;;;14.77;;
21675;SDS011;10999;51.332;9.458;2024-03-06T07:31:27;42.22;;;14.52;;
21675;SDS011;10999;51.332;9.458;2024-03-06T07:33:54;50.13;;;15.05;;
21675;SDS011;10999;51.332;9.458;2024-03-06T07:36:21;40.17;;;15.07;;
21675;SDS011;10999;51.332;9.458;2024-03-06T07:38:48;43.40;;;14.82;;
21675;SDS011;10999;51.332;9.458;2024-03-06T07:41:15;41.38;;;15.88;;
21675;SDS011;10999;51.332;9.458;2024-03-06T07:43:42;38.20;;;14.73;;
21675;SDS011;10999;51.332;9.458;2024-03-06T07:46:09;46.05;;;16.42;;
21675;SDS011;10999;51.332;9.458;2024-03-06T07:48:37;44.78;;;16.60;;
21675;SDS011;10999;51.332;9.458;2024-03-06T07:51:05;32.42;;;14.80;;
21675;SDS011;10999;51.332;9.458;2024-03-06T07:53:33;40.85;;;14.98;;
21675;SDS011;10999;51.332;9.458;2024-03-06T07:56:00;37.63;;;14.95;;
21675;SDS011;10999;51.332;9.458;2024-03-06T07:58:27;41.05;;;14.82;;
21675;SDS011;10999;51.332;9.458;2024-03-06T08:00:54;49.45;;;16.73;;
21675;SDS011;10999;51.332;9.458;2024-03-06T08:03:23;40.60;;;15.85;;
21675;SDS011;10999;51.332;9.458;2024-03-06T08:05:51;37.80;;;13.45;;
21675;SDS011;10999;51.332;9.458;2024-03-06T08:08:19;43.20;;;15.02;;
21675;SDS011;10999;51.332;9.458;2024-03-06T08:10:47;42.80;;;16.40;;
21675;SDS011;10999;51.332;9.458;2024-03-06T08:13:13;41.13;;;16.50;;
21675;SDS011;10999;51.332;9.458;2024-03-06T08:15:40;43.58;;;14.55;;
21675;SDS011;10999;51.332;9.458;2024-03-06T08:18:10;49.78;;;17.00;;
21675;SDS011;10999;51.332;9.458;2024-03-06T08:20:37;37.47;;;14.68;;
21675;SDS011;10999;51.332;9.458;2024-03-06T08:23:04;43.55;;;15.38;;
21675;SDS011;10999;51.332;9.458;2024-03-06T08:25:31;53.60;;;17.55;;
21675;SDS011;10999;51.332;9.458;2024-03-06T08:27:59;49.47;;;16.75;;
21675;SDS011;10999;51.332;9.458;2024-03-06T08:30:25;42.28;;;14.93;;
21675;SDS011;10999;51.332;9.458;2024-03-06T08:32:52;49.13;;;16.58;;
21675;SDS011;10999;51.332;9.458;2024-03-06T08:35:19;40.92;;;15.20;;
21675;SDS011;10999;51.332;9.458;2024-03-06T08:37:47;44.17;;;15.02;;
21675;SDS011;10999;51.332;9.458;2024-03-06T08:40:14;46.38;;;15.02;;
21675;SDS011;10999;51.332;9.458;2024-03-06T08:42:42;46.58;;;16.70;;
21675;SDS011;10999;51.332;9.458;2024-03-06T08:45:09;37.95;;;14.25;;
21675;SDS011;10999;51.332;9.458;2024-03-06T08:47:37;43.15;;;16.10;;
21675;SDS011;10999;51.332;9.458;2024-03-06T08:50:04;49.17;;;16.35;;
21675;SDS011;10999;51.332;9.458;2024-03-06T08:52:31;48.22;;;15.38;;
21675;SDS011;10999;51.332;9.458;2024-03-06T08:54:58;46.28;;;15.32;;
21675;SDS011;10999;51.332;9.458;2024-03-06T08:57:25;42.53;;;15.93;;
21675;SDS011;10999;51.332;9.458;2024-03-06T08:59:54;47.63;;;16.60;;
21675;SDS011;10999;51.332;9.458;2024-03-06T09:02:21;49.50;;;16.85;;
21675;SDS011;10999;51.332;9.458;2024-03-06T09:04:48;45.28;;;15.43;;
21675;SDS011;10999;51.332;9.458;2024-03-06T09:07:18;41.40;;;15.65;;
21675;SDS011;10999;51.332;9.458;2024-03-06T09:09:45;40.88;;;15.60;;
21675;SDS011;10999;51.332;9.458;2024-03-06T09:12:12;46.30;;;17.02;;
21675;SDS011;10999;51.332;9.458;2024-03-06T09:14:40;44.70;;;16.88;;
21675;SDS011;10999;51.332;9.458;2024-03-06T09:17:08;41.78;;;17.00;;
21675;SDS011;10999;51.332;9.458;2024-03-06T09:19:41;40.22;;;15.95;;
21675;SDS011;10999;51.332;9.458;2024-03-06T09:22:28;40.20;;;14.98;;
21675;SDS011;10999;51.332;9.458;2024-03-06T09:24:55;39.00;;;15.32;;
21675;SDS011;10999;51.332;9.458;2024-03-06T09:27:22;40.70;;;15.98;;
21675;SDS011;10999;51.332;9.458;2024-03-06T09:29:49;48.70;;;17.38;;
21675;SDS011;10999;51.332;9.458;2024-03-06T09:32:16;39.05;;;15.13;;
21675;SDS011;10999;51.332;9.458;2024-03-06T09:34:45;40.75;;;15.55;;
21675;SDS011;10999;51.332;9.458;2024-03-06T09:37:12;39.13;;;15.60;;
21675;SDS011;10999;51.332;9.458;2024-03-06T09:39:39;37.28;;;15.05;;
21675;SDS011;10999;51.332;9.458;2024-03-06T09:42:05;33.20;;;14.68;;
21675;SDS011;10999;51.332;9.458;2024-03-06T09:44:34;43.38;;;16.10;;
21675;SDS011;10999;51.332;9.458;2024-03-06T09:47:02;37.35;;;15.00;;
21675;SDS011;10999;51.332;9.458;2024-03-06T09:49:30;36.40;;;14.35;;
21675;SDS011;10999;51.332;9.458;2024-03-06T09:51:58;31.13;;;13.98;;
21675;SDS011;10999;51.332;9.458;2024-03-06T09:54:29;36.53;;;16.60;;
21675;SDS011;10999;51.332;9.458;2024-03-06T09:56:56;36.58;;;13.73;;
21675;SDS011;10999;51.332;9.458;2024-03-06T09:59:25;34.45;;;14.10;;
21675;SDS011;10999;51.332;9.458;2024-03-06T10:01:53;38.08;;;14.77;;
21675;SDS011;10999;51.332;9.458;2024-03-06T10:04:22;38.58;;;14.65;;
21675;SDS011;10999;51.332;9.458;2024-03-06T10:06:57;37.63;;;13.73;;
21675;SDS011;10999;51.332;9.458;2024-03-06T10:09:25;38.28;;;14.98;;
21675;SDS011;10999;51.332;9.458;2024-03-06T10:11:53;34.78;;;13.25;;
21675;SDS011;10999;51.332;9.458;2024-03-06T10:14:22;34.90;;;14.32;;
21675;SDS011;10999;51.332;9.458;2024-03-06T10:16:56;41.38;;;14.23;;
21675;SDS011;10999;51.332;9.458;2024-03-06T10:19:28;37.10;;;14.68;;
21675;SDS011;10999;51.332;9.458;2024-03-06T10:21:56;38.78;;;15.13;;
21675;SDS011;10999;51.332;9.458;2024-03-06T10:24:24;32.22;;;13.93;;
21675;SDS011;10999;51.332;9.458;2024-03-06T10:26:55;36.38;;;14.75;;
21675;SDS011;10999;51.332;9.458;2024-03-06T10:29:25;34.60;;;16.38;;
21675;SDS011;10999;51.332;9.458;2024-03-06T10:31:54;33.95;;;13.32;;
21675;SDS011;10999;51.332;9.458;2024-03-06T10:34:26;33.20;;;14.77;;
21675;SDS011;10999;51.332;9.458;2024-03-06T10:39:33;32.28;;;13.90;;
21675;SDS011;10999;51.332;9.458;2024-03-06T10:42:01;36.08;;;14.88;;
21675;SDS011;10999;51.332;9.458;2024-03-06T10:44:29;38.28;;;16.50;;
21675;SDS011;10999;51.332;9.458;2024-03-06T10:46:57;38.17;;;14.43;;
21675;SDS011;10999;51.332;9.458;2024-03-06T10:49:27;35.38;;;13.85;;
21675;SDS011;10999;51.332;9.458;2024-03-06T10:52:02;36.17;;;14.05;;
21675;SDS011;10999;51.332;9.458;2024-03-06T10:54:34;36.78;;;14.60;;
21675;SDS011;10999;51.332;9.458;2024-03-06T10:57:03;30.52;;;13.93;;
21675;SDS011;10999;51.332;9.458;2024-03-06T10:59:30;38.00;;;15.20;;
21675;SDS011;10999;51.332;9.458;2024-03-06T11:01:58;32.53;;;14.00;;
21675;SDS011;10999;51.332;9.458;2024-03-06T11:04:28;37.67;;;16.02;;
21675;SDS011;10999;51.332;9.458;2024-03-06T11:07:00;31.77;;;13.55;;
21675;SDS011;10999;51.332;9.458;2024-03-06T11:09:32;34.33;;;13.60;;
21675;SDS011;10999;51.332;9.458;2024-03-06T11:12:01;37.33;;;15.15;;
21675;SDS011;10999;51.332;9.458;2024-03-06T11:14:30;32.20;;;14.23;;
21675;SDS011;10999;51.332;9.458;2024-03-06T11:17:10;36.63;;;15.07;;
21675;SDS011;10999;51.332;9.458;2024-03-06T11:28:17;36.38;;;14.40;;
21675;SDS011;10999;51.332;9.458;2024-03-06T11:36:17;36.42;;;14.60;;
21675;SDS011;10999;51.332;9.458;2024-03-06T11:38:58;38.10;;;15.27;;
21675;SDS011;10999;51.332;9.458;2024-03-06T11:41:27;29.02;;;13.05;;
21675;SDS011;10999;51.332;9.458;2024-03-06T11:43:55;34.90;;;13.40;;
21675;SDS011;10999;51.332;9.458;2024-03-06T11:46:23;33.78;;;14.23;;
21675;SDS011;10999;51.332;9.458;2024-03-06T11:49:14;31.02;;;14.60;;
21675;SDS011;10999;51.332;9.458;2024-03-06T11:51:42;30.58;;;13.52;;
21675;SDS011;10999;51.332;9.458;2024-03-06T11:54:11;33.70;;;14.75;;
21675;SDS011;10999;51.332;9.458;2024-03-06T11:56:39;33.15;;;13.50;;
21675;SDS011;10999;51.332;9.458;2024-03-06T11:59:08;29.55;;;12.88;;
21675;SDS011;10999;51.332;9.458;2024-03-06T12:01:36;36.28;;;14.95;;
21675;SDS011;10999;51.332;9.458;2024-03-06T12:04:04;31.70;;;14.85;;
21675;SDS011;10999;51.332;9.458;2024-03-06T12:06:32;38.28;;;15.18;;
21675;SDS011;10999;51.332;9.458;2024-03-06T12:09:00;32.53;;;14.30;;
21675;SDS011;10999;51.332;9.458;2024-03-06T12:11:26;34.67;;;14.90;;
21675;SDS011;10999;51.332;9.458;2024-03-06T12:13:55;27.83;;;12.07;;
21675;SDS011;10999;51.332;9.458;2024-03-06T12:16:23;30.00;;;12.73;;
21675;SDS011;10999;51.332;9.458;2024-03-06T12:18:56;30.35;;;14.88;;
21675;SDS011;10999;51.332;9.458;2024-03-06T12:21:33;28.13;;;12.65;;
21675;SDS011;10999;51.332;9.458;2024-03-06T12:24:08;36.17;;;15.00;;
21675;SDS011;10999;51.332;9.458;2024-03-06T12:26:36;35.83;;;14.60;;
21675;SDS011;10999;51.332;9.458;2024-03-06T12:29:07;28.70;;;13.57;;
21675;SDS011;10999;51.332;9.458;2024-03-06T12:31:36;29.75;;;13.85;;
21675;SDS011;10999;51.332;9.458;2024-03-06T12:34:08;29.58;;;12.77;;
21675;SDS011;10999;51.332;9.458;2024-03-06T12:36:39;34.05;;;15.32;;
21675;SDS011;10999;51.332;9.458;2024-03-06T12:39:06;33.63;;;15.32;;
21675;SDS011;10999;51.332;9.458;2024-03-06T12:41:39;33.47;;;14.02;;
21675;SDS011;10999;51.332;9.458;2024-03-06T12:44:07;29.42;;;13.23;;
21675;SDS011;10999;51.332;9.458;2024-03-06T12:46:34;26.38;;;12.77;;
21675;SDS011;10999;51.332;9.458;2024-03-06T12:49:01;31.73;;;12.90;;
21675;SDS011;10999;51.332;9.458;2024-03-06T12:51:28;29.75;;;13.23;;
21675;SDS011;10999;51.332;9.458;2024-03-06T12:53:54;27.63;;;13.20;;
21675;SDS011;10999;51.332;9.458;2024-03-06T12:56:21;28.75;;;12.18;;
21675;SDS011;10999;51.332;9.458;2024-03-06T12:58:48;27.30;;;12.90;;
21675;SDS011;10999;51.332;9.458;2024-03-06T13:01:15;25.15;;;11.70;;
21675;SDS011;10999;51.332;9.458;2024-03-06T13:03:41;30.83;;;12.82;;
21675;SDS011;10999;51.332;9.458;2024-03-06T13:06:08;28.88;;;11.88;;
21675;SDS011;10999;51.332;9.458;2024-03-06T13:08:36;27.85;;;12.75;;
21675;SDS011;10999;51.332;9.458;2024-03-06T13:11:03;28.60;;;12.82;;
21675;SDS011;10999;51.332;9.458;2024-03-06T13:13:30;28.75;;;12.65;;
21675;SDS011;10999;51.332;9.458;2024-03-06T13:15:59;28.50;;;12.27;;
21675;SDS011;10999;51.332;9.458;2024-03-06T13:18:29;24.98;;;11.50;;
21675;SDS011;10999;51.332;9.458;2024-03-06T13:20:56;25.08;;;13.00;;
21675;SDS011;10999;51.332;9.458;2024-03-06T13:23:24;32.92;;;12.98;;
21675;SDS011;10999;51.332;9.458;2024-03-06T13:25:51;25.70;;;12.38;;
21675;SDS011;10999;51.332;9.458;2024-03-06T13:28:18;26.17;;;12.82;;
21675;SDS011;10999;51.332;9.458;2024-03-06T13:30:47;27.42;;;12.23;;
21675;SDS011;10999;51.332;9.458;2024-03-06T13:33:14;27.85;;;12.05;;
21675;SDS011;10999;51.332;9.458;2024-03-06T13:35:45;26.08;;;12.88;;
21675;SDS011;10999;51.332;9.458;2024-03-06T13:38:12;30.27;;;12.30;;
21675;SDS011;10999;51.332;9.458;2024-03-06T13:40:39;27.45;;;11.85;;
21675;SDS011;10999;51.332;9.458;2024-03-06T13:43:06;29.13;;;13.18;;
21675;SDS011;10999;51.332;9.458;2024-03-06T13:45:33;27.52;;;12.75;;
21675;SDS011;10999;51.332;9.458;2024-03-06T13:48:00;29.13;;;12.77;;
21675;SDS011;10999;51.332;9.458;2024-03-06T13:50:27;25.35;;;13.05;;
21675;SDS011;10999;51.332;9.458;2024-03-06T13:52:55;29.52;;;11.98;;
21675;SDS011;10999;51.332;9.458;2024-03-06T13:55:22;25.80;;;11.85;;
21675;SDS011;10999;51.332;9.458;2024-03-06T13:57:49;27.33;;;11.85;;
21675;SDS011;10999;51.332;9.458;2024-03-06T14:00:16;26.45;;;12.60;;
21675;SDS011;10999;51.332;9.458;2024-03-06T14:02:44;23.25;;;11.48;;
21675;SDS011;10999;51.332;9.458;2024-03-06T14:05:15;28.67;;;11.60;;
21675;SDS011;10999;51.332;9.458;2024-03-06T14:07:42;28.90;;;13.27;;
21675;SDS011;10999;51.332;9.458;2024-03-06T14:10:09;21.83;;;11.07;;
21675;SDS011;10999;51.332;9.458;2024-03-06T14:12:37;24.50;;;11.60;;
21675;SDS011;10999;51.332;9.458;2024-03-06T14:15:05;26.25;;;12.75;;
21675;SDS011;10999;51.332;9.458;2024-03-06T14:17:38;22.70;;;10.80;;
21675;SDS011;10999;51.332;9.458;2024-03-06T14:20:05;22.33;;;11.40;;
21675;SDS011;10999;51.332;9.458;2024-03-06T14:22:33;24.70;;;12.10;;
21675;SDS011;10999;51.332;9.458;2024-03-06T14:24:59;26.98;;;11.40;;
21675;SDS011;10999;51.332;9.458;2024-03-06T14:27:26;26.90;;;12.57;;
21675;SDS011;10999;51.332;9.458;2024-03-06T14:29:53;26.55;;;11.95;;
21675;SDS011;10999;51.332;9.458;2024-03-06T14:32:20;24.25;;;11.52;;
21675;SDS011;10999;51.332;9.458;2024-03-06T14:34:47;24.67;;;11.48;;
21675;SDS011;10999;51.332;9.458;2024-03-06T14:37:14;24.38;;;12.18;;
21675;SDS011;10999;51.332;9.458;2024-03-06T14:39:41;24.98;;;10.80;;
21675;SDS011;10999;51.332;9.458;2024-03-06T14:42:07;24.88;;;12.13;;
21675;SDS011;10999;51.332;9.458;2024-03-06T14:44:34;26.60;;;12.75;;
21675;SDS011;10999;51.332;9.458;2024-03-06T14:47:01;28.30;;;12.80;;
21675;SDS011;10999;51.332;9.458;2024-03-06T14:49:28;22.52;;;11.88;;